This is the latest recevied weather packets stored in our database for station/object DK8HC-WX. If no packets are shown the sender has not sent any weather packets the latest 10 day(s).
| Time | Temp. | Humidity | Pressure | Rain* | Wind** | Luminosity | Snow |
|---|---|---|---|---|---|---|---|
| 1777198271 | 20° C | 53% | 1028.9 hPa | - | - | - | - |
| 1777197671 | 17.78° C | 54% | 1028.7 hPa | - | - | - | - |
| 1777197071 | 18.89° C | 56% | 1028.7 hPa | - | - | - | - |
| 1777196471 | 19.44° C | 59% | 1028.8 hPa | - | - | - | - |
| 1777195871 | 17.78° C | 65% | 1028.6 hPa | - | - | - | - |
| 1777195271 | 17.22° C | 61% | 1028.8 hPa | - | - | - | - |
| 1777194671 | 18.89° C | 63% | 1028.8 hPa | - | - | - | - |
| 1777194071 | 18.33° C | 61% | 1028.8 hPa | - | - | - | - |
| 1777193471 | 19.44° C | 62% | 1029.1 hPa | - | - | - | - |
| 1777192871 | 19.44° C | 67% | 1029.1 hPa | - | - | - | - |
| 1777192271 | 17.78° C | 75% | 1029 hPa | - | - | - | - |
| 1777191671 | 17.78° C | 76% | 1028.7 hPa | - | - | - | - |
| 1777191071 | 14.44° C | 75% | 1028.5 hPa | - | - | - | - |
| 1777190471 | 15.56° C | 70% | 1028.7 hPa | - | - | - | - |
| 1777189871 | 19.44° C | 70% | 1029 hPa | - | - | - | - |
| 1777189270 | 19.44° C | 79% | 1028.5 hPa | - | - | - | - |
| 1777188671 | 15.56° C | 88% | 1027.7 hPa | - | - | - | - |
| 1777188070 | 13.89° C | 97% | 1027.6 hPa | - | - | - | - |
| 1777187470 | 13.33° C | 85% | 1027.7 hPa | - | - | - | - |
| 1777186870 | 16.11° C | 87% | 1027.7 hPa | - | - | - | - |
| 1777186270 | 15° C | 94% | 1027.2 hPa | - | - | - | - |
| 1777185670 | 14.44° C | 99% | 1027 hPa | - | - | - | - |
| 1777185070 | 13.89° C | 98% | 1026.9 hPa | - | - | - | - |
| 1777184470 | 15° C | 100% | 1027.1 hPa | - | - | - | - |
| 1777183870 | 13.89° C | 100% | 1027.1 hPa | - | - | - | - |
* Rain since midnight (hover to see other rain measurements)
** Current wind speed in m/s (hover to see current wind gust speed)